sensor_id;sensor_type;location;lat;lon;timestamp;pressure;altitude;pressure_sealevel;temperature;humidity
1926;BME280;964;42.606;23.588;2022-07-17T00:00:22;94872.69;;;41.09;25.50
1926;BME280;964;42.606;23.588;2022-07-17T00:02:49;94878.34;;;41.25;25.59
1926;BME280;964;42.606;23.588;2022-07-17T00:05:17;94885.28;;;40.77;25.94
1926;BME280;964;42.606;23.588;2022-07-17T00:07:44;94885.75;;;40.88;25.70
1926;BME280;964;42.606;23.588;2022-07-17T00:10:12;94887.19;;;40.82;25.94
1926;BME280;964;42.606;23.588;2022-07-17T00:12:39;94890.53;;;40.67;26.29
1926;BME280;964;42.606;23.588;2022-07-17T00:15:08;94890.97;;;41.05;25.17
1926;BME280;964;42.606;23.588;2022-07-17T00:17:35;94887.75;;;40.67;26.15
1926;BME280;964;42.606;23.588;2022-07-17T00:20:02;94911.31;;;40.00;26.42
1926;BME280;964;42.606;23.588;2022-07-17T00:22:29;94906.63;;;38.68;28.06
1926;BME280;964;42.606;23.588;2022-07-17T00:24:55;94911.59;;;39.07;27.62
1926;BME280;964;42.606;23.588;2022-07-17T00:27:22;94903.78;;;39.69;27.00
1926;BME280;964;42.606;23.588;2022-07-17T00:29:49;94894.22;;;39.70;26.80
1926;BME280;964;42.606;23.588;2022-07-17T00:32:17;94902.38;;;40.21;26.49
1926;BME280;964;42.606;23.588;2022-07-17T00:34:43;94902.38;;;40.21;26.35
1926;BME280;964;42.606;23.588;2022-07-17T00:37:10;94896.88;;;40.54;25.85
1926;BME280;964;42.606;23.588;2022-07-17T00:39:37;94913.50;;;39.62;27.43
1926;BME280;964;42.606;23.588;2022-07-17T00:42:04;94913.00;;;39.90;26.59
1926;BME280;964;42.606;23.588;2022-07-17T00:44:31;94914.09;;;39.74;27.00
1926;BME280;964;42.606;23.588;2022-07-17T00:46:58;94918.25;;;39.36;27.05
1926;BME280;964;42.606;23.588;2022-07-17T00:49:26;94912.97;;;39.64;27.01
1926;BME280;964;42.606;23.588;2022-07-17T00:51:52;94915.03;;;39.32;27.10
1926;BME280;964;42.606;23.588;2022-07-17T00:54:20;94915.72;;;39.64;26.69
1926;BME280;964;42.606;23.588;2022-07-17T00:56:49;94914.53;;;39.91;26.99
1926;BME280;964;42.606;23.588;2022-07-17T00:59:18;94918.78;;;40.05;26.76
1926;BME280;964;42.606;23.588;2022-07-17T01:01:45;94919.44;;;39.98;26.20
1926;BME280;964;42.606;23.588;2022-07-17T01:04:13;94919.44;;;39.98;26.67
1926;BME280;964;42.606;23.588;2022-07-17T01:06:41;94909.94;;;40.33;26.40
1926;BME280;964;42.606;23.588;2022-07-17T01:09:10;94908.44;;;40.58;26.07
1926;BME280;964;42.606;23.588;2022-07-17T01:11:36;94917.31;;;40.31;26.80
1926;BME280;964;42.606;23.588;2022-07-17T01:14:03;94921.13;;;40.41;26.23
1926;BME280;964;42.606;23.588;2022-07-17T01:16:30;94910.69;;;40.34;26.60
1926;BME280;964;42.606;23.588;2022-07-17T01:18:58;94925.22;;;40.40;26.41
1926;BME280;964;42.606;23.588;2022-07-17T01:21:37;94920.84;;;40.57;25.87
1926;BME280;964;42.606;23.588;2022-07-17T01:24:05;94918.81;;;40.58;25.82
1926;BME280;964;42.606;23.588;2022-07-17T01:26:32;94916.81;;;40.79;25.50
1926;BME280;964;42.606;23.588;2022-07-17T01:28:59;94912.41;;;41.18;24.85
1926;BME280;964;42.606;23.588;2022-07-17T01:31:26;94914.66;;;41.19;24.80
1926;BME280;964;42.606;23.588;2022-07-17T01:33:52;94913.38;;;41.20;24.90
1926;BME280;964;42.606;23.588;2022-07-17T01:36:21;94912.81;;;41.22;25.32
1926;BME280;964;42.606;23.588;2022-07-17T01:38:50;94908.19;;;41.03;25.60
1926;BME280;964;42.606;23.588;2022-07-17T01:41:18;94911.75;;;40.57;25.28
1926;BME280;964;42.606;23.588;2022-07-17T01:43:44;94912.38;;;40.63;25.46
1926;BME280;964;42.606;23.588;2022-07-17T01:46:11;94913.19;;;40.71;24.82
1926;BME280;964;42.606;23.588;2022-07-17T01:48:38;94914.09;;;40.40;25.58
1926;BME280;964;42.606;23.588;2022-07-17T01:51:05;94905.19;;;40.68;25.11
1926;BME280;964;42.606;23.588;2022-07-17T01:53:31;94915.09;;;40.29;25.50
1926;BME280;964;42.606;23.588;2022-07-17T01:56:00;94909.81;;;40.39;25.62
1926;BME280;964;42.606;23.588;2022-07-17T01:58:26;94912.59;;;40.39;25.49
1926;BME280;964;42.606;23.588;2022-07-17T02:00:53;94919.00;;;40.47;25.52
1926;BME280;964;42.606;23.588;2022-07-17T02:03:21;94922.84;;;40.04;26.61
1926;BME280;964;42.606;23.588;2022-07-17T02:05:48;94923.63;;;38.96;27.88
1926;BME280;964;42.606;23.588;2022-07-17T02:08:14;94923.00;;;38.66;28.39
1926;BME280;964;42.606;23.588;2022-07-17T02:10:41;94929.75;;;39.27;27.83
1926;BME280;964;42.606;23.588;2022-07-17T02:13:10;94921.94;;;39.06;27.58
1926;BME280;964;42.606;23.588;2022-07-17T02:15:37;94915.91;;;39.21;27.44
1926;BME280;964;42.606;23.588;2022-07-17T02:18:03;94920.44;;;39.69;27.25
1926;BME280;964;42.606;23.588;2022-07-17T02:20:30;94923.38;;;39.77;26.70
1926;BME280;964;42.606;23.588;2022-07-17T02:22:57;94925.25;;;39.68;26.75
1926;BME280;964;42.606;23.588;2022-07-17T02:25:23;94919.78;;;38.62;28.08
1926;BME280;964;42.606;23.588;2022-07-17T02:27:50;94919.88;;;38.75;27.59
1926;BME280;964;42.606;23.588;2022-07-17T02:30:19;94921.09;;;38.98;27.82
1926;BME280;964;42.606;23.588;2022-07-17T02:32:45;94919.22;;;39.96;26.09
1926;BME280;964;42.606;23.588;2022-07-17T02:35:12;94917.97;;;40.24;26.43
1926;BME280;964;42.606;23.588;2022-07-17T02:37:40;94908.13;;;40.36;26.11
1926;BME280;964;42.606;23.588;2022-07-17T02:40:09;94928.59;;;39.80;25.99
1926;BME280;964;42.606;23.588;2022-07-17T02:42:36;94914.28;;;39.76;26.02
1926;BME280;964;42.606;23.588;2022-07-17T02:45:03;94914.09;;;39.74;25.75
1926;BME280;964;42.606;23.588;2022-07-17T02:47:34;94913.88;;;39.98;25.19
1926;BME280;964;42.606;23.588;2022-07-17T02:50:03;94908.22;;;39.91;25.60
1926;BME280;964;42.606;23.588;2022-07-17T02:52:31;94919.44;;;40.51;25.35
1926;BME280;964;42.606;23.588;2022-07-17T02:54:58;94931.34;;;40.85;24.54
1926;BME280;964;42.606;23.588;2022-07-17T02:57:25;94923.38;;;41.02;24.34
1926;BME280;964;42.606;23.588;2022-07-17T02:59:51;94942.31;;;40.31;25.18
1926;BME280;964;42.606;23.588;2022-07-17T03:02:18;94937.16;;;40.48;25.32
1926;BME280;964;42.606;23.588;2022-07-17T03:04:46;94926.69;;;40.54;24.66
1926;BME280;964;42.606;23.588;2022-07-17T03:07:13;94936.13;;;39.66;26.08
1926;BME280;964;42.606;23.588;2022-07-17T03:09:40;94943.06;;;39.28;26.39
1926;BME280;964;42.606;23.588;2022-07-17T03:12:07;94941.03;;;39.60;26.28
1926;BME280;964;42.606;23.588;2022-07-17T03:14:33;94953.81;;;39.95;26.07
1926;BME280;964;42.606;23.588;2022-07-17T03:17:01;94949.56;;;40.34;25.85
1926;BME280;964;42.606;23.588;2022-07-17T03:19:28;94947.44;;;40.40;25.24
1926;BME280;964;42.606;23.588;2022-07-17T03:21:56;94955.34;;;40.23;25.93
1926;BME280;964;42.606;23.588;2022-07-17T03:24:23;94954.03;;;39.97;25.56
1926;BME280;964;42.606;23.588;2022-07-17T03:26:50;94956.16;;;40.04;26.45
1926;BME280;964;42.606;23.588;2022-07-17T03:29:16;94961.84;;;40.38;26.31
1926;BME280;964;42.606;23.588;2022-07-17T03:31:44;94953.84;;;40.61;25.20
1926;BME280;964;42.606;23.588;2022-07-17T03:34:11;94962.81;;;40.67;25.80
1926;BME280;964;42.606;23.588;2022-07-17T03:36:38;94967.09;;;40.55;25.70
1926;BME280;964;42.606;23.588;2022-07-17T03:39:06;94979.84;;;39.79;26.10
1926;BME280;964;42.606;23.588;2022-07-17T03:41:33;94970.72;;;40.50;25.63
1926;BME280;964;42.606;23.588;2022-07-17T03:44:00;94969.66;;;40.66;25.27
1926;BME280;964;42.606;23.588;2022-07-17T03:46:26;94967.94;;;40.76;25.54
1926;BME280;964;42.606;23.588;2022-07-17T03:48:53;94968.19;;;40.65;25.38
1926;BME280;964;42.606;23.588;2022-07-17T03:51:20;94976.91;;;40.82;25.09
1926;BME280;964;42.606;23.588;2022-07-17T03:53:47;94975.38;;;40.94;25.49
1926;BME280;964;42.606;23.588;2022-07-17T03:56:15;94979.59;;;41.22;24.96
1926;BME280;964;42.606;23.588;2022-07-17T03:58:42;94968.63;;;41.37;25.09
1926;BME280;964;42.606;23.588;2022-07-17T04:01:09;94983.97;;;41.17;24.56
1926;BME280;964;42.606;23.588;2022-07-17T04:03:36;94990.47;;;40.99;25.29
1926;BME280;964;42.606;23.588;2022-07-17T04:06:02;94982.75;;;41.05;25.33
1926;BME280;964;42.606;23.588;2022-07-17T04:08:30;94976.19;;;41.49;24.41
1926;BME280;964;42.606;23.588;2022-07-17T04:10:57;94999.03;;;41.35;25.06
1926;BME280;964;42.606;23.588;2022-07-17T04:13:25;95006.53;;;40.53;25.89
1926;BME280;964;42.606;23.588;2022-07-17T04:15:52;95001.34;;;40.97;25.04
1926;BME280;964;42.606;23.588;2022-07-17T04:18:22;95008.25;;;41.30;24.86
1926;BME280;964;42.606;23.588;2022-07-17T04:20:50;95005.88;;;41.34;25.40
1926;BME280;964;42.606;23.588;2022-07-17T04:23:17;95013.13;;;41.37;24.86
1926;BME280;964;42.606;23.588;2022-07-17T04:25:44;95011.00;;;41.09;24.90
1926;BME280;964;42.606;23.588;2022-07-17T04:28:11;95012.72;;;41.33;25.26
1926;BME280;964;42.606;23.588;2022-07-17T04:30:40;95018.28;;;41.33;25.38
1926;BME280;964;42.606;23.588;2022-07-17T04:33:07;95013.47;;;41.67;24.77
1926;BME280;964;42.606;23.588;2022-07-17T04:35:34;95020.72;;;41.49;24.84
1926;BME280;964;42.606;23.588;2022-07-17T04:38:01;95021.69;;;42.14;24.54
1926;BME280;964;42.606;23.588;2022-07-17T04:40:28;95021.78;;;41.80;25.42
1926;BME280;964;42.606;23.588;2022-07-17T04:42:54;95024.97;;;41.50;25.55
1926;BME280;964;42.606;23.588;2022-07-17T04:45:21;95030.03;;;41.52;25.47
1926;BME280;964;42.606;23.588;2022-07-17T04:47:50;95031.28;;;41.85;25.11
1926;BME280;964;42.606;23.588;2022-07-17T04:50:16;95030.59;;;41.71;24.72
1926;BME280;964;42.606;23.588;2022-07-17T04:52:43;95029.69;;;41.76;25.07
1926;BME280;964;42.606;23.588;2022-07-17T04:55:10;95026.59;;;41.12;25.74
1926;BME280;964;42.606;23.588;2022-07-17T04:57:37;95028.00;;;41.52;24.10
1926;BME280;964;42.606;23.588;2022-07-17T05:00:05;95038.31;;;41.65;24.35
1926;BME280;964;42.606;23.588;2022-07-17T05:02:32;95034.13;;;41.38;23.83
1926;BME280;964;42.606;23.588;2022-07-17T05:05:02;95030.34;;;41.82;23.84
1926;BME280;964;42.606;23.588;2022-07-17T05:07:29;95031.78;;;42.53;23.23
1926;BME280;964;42.606;23.588;2022-07-17T05:09:56;95036.47;;;42.09;23.68
1926;BME280;964;42.606;23.588;2022-07-17T05:12:23;95041.56;;;41.56;24.47
1926;BME280;964;42.606;23.588;2022-07-17T05:14:49;95043.59;;;41.76;23.05
1926;BME280;964;42.606;23.588;2022-07-17T05:17:16;95046.34;;;42.31;22.46
1926;BME280;964;42.606;23.588;2022-07-17T05:19:43;95044.25;;;42.52;23.32
1926;BME280;964;42.606;23.588;2022-07-17T05:22:11;95045.97;;;42.91;22.96
1926;BME280;964;42.606;23.588;2022-07-17T05:24:38;95051.91;;;42.59;23.17
1926;BME280;964;42.606;23.588;2022-07-17T05:27:04;95054.41;;;42.42;22.63
1926;BME280;964;42.606;23.588;2022-07-17T05:29:31;95049.34;;;42.33;21.46
1926;BME280;964;42.606;23.588;2022-07-17T05:31:58;95049.53;;;43.35;21.64
1926;BME280;964;42.606;23.588;2022-07-17T05:34:25;95054.66;;;41.69;22.30
1926;BME280;964;42.606;23.588;2022-07-17T05:36:51;95050.44;;;41.88;22.34
1926;BME280;964;42.606;23.588;2022-07-17T05:39:19;95054.84;;;41.84;21.64
1926;BME280;964;42.606;23.588;2022-07-17T05:41:46;95047.00;;;41.62;22.03
1926;BME280;964;42.606;23.588;2022-07-17T05:44:13;95046.78;;;42.99;22.54
1926;BME280;964;42.606;23.588;2022-07-17T05:46:39;95046.13;;;43.29;22.31
1926;BME280;964;42.606;23.588;2022-07-17T05:49:06;95041.59;;;43.62;22.49
1926;BME280;964;42.606;23.588;2022-07-17T05:51:33;95043.94;;;43.35;21.20
1926;BME280;964;42.606;23.588;2022-07-17T05:53:59;95048.03;;;43.34;22.54
1926;BME280;964;42.606;23.588;2022-07-17T05:56:28;95040.75;;;43.89;21.05
1926;BME280;964;42.606;23.588;2022-07-17T05:58:55;95043.91;;;43.20;22.00
1926;BME280;964;42.606;23.588;2022-07-17T06:01:22;95046.69;;;44.09;21.28
1926;BME280;964;42.606;23.588;2022-07-17T06:03:49;95048.69;;;43.12;21.53
1926;BME280;964;42.606;23.588;2022-07-17T06:06:16;95053.97;;;44.12;21.50
1926;BME280;964;42.606;23.588;2022-07-17T06:08:42;95061.09;;;43.39;21.07
1926;BME280;964;42.606;23.588;2022-07-17T06:11:09;95064.50;;;43.60;21.46
1926;BME280;964;42.606;23.588;2022-07-17T06:13:38;95055.63;;;44.00;20.06
1926;BME280;964;42.606;23.588;2022-07-17T06:16:05;95057.13;;;43.85;20.63
1926;BME280;964;42.606;23.588;2022-07-17T06:18:31;95054.72;;;44.05;19.86
1926;BME280;964;42.606;23.588;2022-07-17T06:20:58;95057.88;;;44.09;20.55
1926;BME280;964;42.606;23.588;2022-07-17T06:23:25;95058.94;;;43.60;20.63
1926;BME280;964;42.606;23.588;2022-07-17T06:25:52;95055.47;;;42.88;20.11
1926;BME280;964;42.606;23.588;2022-07-17T06:28:18;95053.41;;;44.36;19.35
1926;BME280;964;42.606;23.588;2022-07-17T06:30:47;95048.94;;;44.18;19.64
1926;BME280;964;42.606;23.588;2022-07-17T06:33:13;95049.66;;;44.71;18.75
1926;BME280;964;42.606;23.588;2022-07-17T06:35:40;95060.88;;;44.11;19.06
1926;BME280;964;42.606;23.588;2022-07-17T06:38:07;95050.06;;;44.00;18.99
1926;BME280;964;42.606;23.588;2022-07-17T06:40:36;95047.81;;;44.51;18.59
1926;BME280;964;42.606;23.588;2022-07-17T06:43:04;95059.56;;;44.42;18.19
1926;BME280;964;42.606;23.588;2022-07-17T06:45:32;95056.31;;;44.99;17.89
1926;BME280;964;42.606;23.588;2022-07-17T06:48:00;95063.97;;;44.90;18.25
1926;BME280;964;42.606;23.588;2022-07-17T06:50:27;95061.28;;;45.55;17.19
1926;BME280;964;42.606;23.588;2022-07-17T06:52:53;95053.50;;;46.11;17.47
1926;BME280;964;42.606;23.588;2022-07-17T06:55:20;95061.25;;;46.20;17.73
1926;BME280;964;42.606;23.588;2022-07-17T06:57:47;95049.84;;;46.85;17.06
1926;BME280;964;42.606;23.588;2022-07-17T07:00:14;95053.25;;;46.41;17.36
1926;BME280;964;42.606;23.588;2022-07-17T07:02:43;95047.63;;;47.44;16.15
1926;BME280;964;42.606;23.588;2022-07-17T07:05:11;95053.41;;;46.43;17.26
1926;BME280;964;42.606;23.588;2022-07-17T07:07:38;95053.63;;;46.79;16.47
1926;BME280;964;42.606;23.588;2022-07-17T07:10:05;95050.00;;;47.04;16.41
1926;BME280;964;42.606;23.588;2022-07-17T07:12:32;95051.97;;;47.28;16.57
1926;BME280;964;42.606;23.588;2022-07-17T07:14:59;95053.72;;;46.30;16.23
1926;BME280;964;42.606;23.588;2022-07-17T07:17:26;95063.28;;;46.27;17.17
1926;BME280;964;42.606;23.588;2022-07-17T07:19:53;95053.06;;;47.59;15.59
1926;BME280;964;42.606;23.588;2022-07-17T07:22:21;95064.66;;;46.60;16.63
1926;BME280;964;42.606;23.588;2022-07-17T07:24:47;95057.69;;;46.44;15.91
1926;BME280;964;42.606;23.588;2022-07-17T07:27:14;95070.38;;;45.71;16.96
1926;BME280;964;42.606;23.588;2022-07-17T07:29:41;95080.25;;;45.79;16.87
1926;BME280;964;42.606;23.588;2022-07-17T07:32:07;95062.84;;;46.72;16.25
1926;BME280;964;42.606;23.588;2022-07-17T07:34:34;95066.66;;;47.19;16.03
1926;BME280;964;42.606;23.588;2022-07-17T07:37:01;95066.31;;;47.15;16.95
1926;BME280;964;42.606;23.588;2022-07-17T07:39:29;95057.91;;;46.63;16.29
1926;BME280;964;42.606;23.588;2022-07-17T07:41:56;95056.00;;;48.15;16.15
1926;BME280;964;42.606;23.588;2022-07-17T07:44:23;95069.66;;;47.21;16.47
1926;BME280;964;42.606;23.588;2022-07-17T07:46:49;95070.06;;;47.17;16.77
1926;BME280;964;42.606;23.588;2022-07-17T07:49:16;95071.91;;;47.49;15.68
1926;BME280;964;42.606;23.588;2022-07-17T07:51:43;95077.63;;;46.56;15.95
1926;BME280;964;42.606;23.588;2022-07-17T07:54:10;95074.53;;;46.44;16.84
1926;BME280;964;42.606;23.588;2022-07-17T07:56:38;95063.13;;;47.62;15.15
1926;BME280;964;42.606;23.588;2022-07-17T07:59:05;95070.75;;;47.52;16.25
1926;BME280;964;42.606;23.588;2022-07-17T08:01:31;95077.19;;;47.62;16.46
1926;BME280;964;42.606;23.588;2022-07-17T08:03:58;95069.28;;;46.83;17.09
1926;BME280;964;42.606;23.588;2022-07-17T08:06:25;95084.41;;;45.63;17.47
1926;BME280;964;42.606;23.588;2022-07-17T08:08:52;95067.16;;;47.08;16.68
1926;BME280;964;42.606;23.588;2022-07-17T08:11:19;95071.31;;;47.07;16.68
1926;BME280;964;42.606;23.588;2022-07-17T08:13:47;95073.28;;;48.38;15.42
1926;BME280;964;42.606;23.588;2022-07-17T08:16:14;95067.88;;;48.69;15.29
1926;BME280;964;42.606;23.588;2022-07-17T08:18:40;95070.50;;;48.21;15.96
1926;BME280;964;42.606;23.588;2022-07-17T08:21:07;95070.78;;;47.35;16.19
1926;BME280;964;42.606;23.588;2022-07-17T08:23:34;95071.78;;;48.37;15.51
1926;BME280;964;42.606;23.588;2022-07-17T08:26:02;95073.78;;;48.73;15.65
1926;BME280;964;42.606;23.588;2022-07-17T08:28:29;95073.19;;;48.65;15.54
1926;BME280;964;42.606;23.588;2022-07-17T08:30:57;95070.84;;;47.62;16.04
1926;BME280;964;42.606;23.588;2022-07-17T08:33:23;95076.28;;;47.60;16.06
1926;BME280;964;42.606;23.588;2022-07-17T08:35:50;95070.31;;;47.29;16.60
1926;BME280;964;42.606;23.588;2022-07-17T08:38:17;95060.94;;;48.99;15.23
1926;BME280;964;42.606;23.588;2022-07-17T08:40:43;95058.47;;;49.63;15.54
1926;BME280;964;42.606;23.588;2022-07-17T08:43:14;95054.66;;;49.68;15.36
1926;BME280;964;42.606;23.588;2022-07-17T08:45:43;95059.13;;;48.94;15.53
1926;BME280;964;42.606;23.588;2022-07-17T08:48:12;95057.59;;;48.54;15.77
1926;BME280;964;42.606;23.588;2022-07-17T08:50:40;95061.34;;;48.20;15.89
1926;BME280;964;42.606;23.588;2022-07-17T08:53:07;95072.94;;;49.28;15.29
1926;BME280;964;42.606;23.588;2022-07-17T08:55:35;95057.38;;;49.08;15.61
1926;BME280;964;42.606;23.588;2022-07-17T08:58:02;95062.31;;;48.42;16.42
1926;BME280;964;42.606;23.588;2022-07-17T09:00:30;95059.38;;;49.75;15.52
1926;BME280;964;42.606;23.588;2022-07-17T09:02:58;95051.06;;;49.77;15.50
1926;BME280;964;42.606;23.588;2022-07-17T09:05:28;95056.31;;;49.42;15.76
1926;BME280;964;42.606;23.588;2022-07-17T09:07:56;95053.50;;;49.51;15.20
1926;BME280;964;42.606;23.588;2022-07-17T09:10:31;95048.09;;;49.75;15.62
1926;BME280;964;42.606;23.588;2022-07-17T09:12:58;95059.88;;;49.23;15.45
1926;BME280;964;42.606;23.588;2022-07-17T09:15:26;95055.28;;;48.80;15.75
1926;BME280;964;42.606;23.588;2022-07-17T09:17:55;95052.34;;;49.95;14.12
1926;BME280;964;42.606;23.588;2022-07-17T09:20:23;95052.59;;;48.62;16.01
1926;BME280;964;42.606;23.588;2022-07-17T09:22:59;95050.09;;;49.34;15.31
1926;BME280;964;42.606;23.588;2022-07-17T09:25:36;95052.75;;;50.32;14.20
1926;BME280;964;42.606;23.588;2022-07-17T09:28:05;95045.22;;;50.25;14.57
1926;BME280;964;42.606;23.588;2022-07-17T09:30:32;95051.75;;;50.27;14.60
1926;BME280;964;42.606;23.588;2022-07-17T09:32:59;95056.44;;;49.53;14.79
1926;BME280;964;42.606;23.588;2022-07-17T09:35:26;95051.66;;;50.16;14.76
1926;BME280;964;42.606;23.588;2022-07-17T09:37:54;95044.63;;;50.57;14.78
1926;BME280;964;42.606;23.588;2022-07-17T09:40:22;95034.31;;;51.70;13.20
1926;BME280;964;42.606;23.588;2022-07-17T09:43:07;95040.88;;;51.39;14.44
1926;BME280;964;42.606;23.588;2022-07-17T09:45:34;95034.31;;;51.70;14.27
1926;BME280;964;42.606;23.588;2022-07-17T09:48:01;95035.16;;;50.74;14.52
1926;BME280;964;42.606;23.588;2022-07-17T09:50:29;95036.03;;;51.98;14.29
1926;BME280;964;42.606;23.588;2022-07-17T09:52:56;95040.31;;;51.31;13.97
1926;BME280;964;42.606;23.588;2022-07-17T09:55:28;95042.06;;;52.51;13.59
1926;BME280;964;42.606;23.588;2022-07-17T09:57:55;95041.91;;;51.23;13.93
1926;BME280;964;42.606;23.588;2022-07-17T10:00:22;95035.34;;;52.21;13.51
1926;BME280;964;42.606;23.588;2022-07-17T10:02:49;95027.19;;;51.92;13.73
1926;BME280;964;42.606;23.588;2022-07-17T10:05:16;95030.75;;;51.36;13.87
1926;BME280;964;42.606;23.588;2022-07-17T10:07:44;95036.09;;;49.65;14.88
1926;BME280;964;42.606;23.588;2022-07-17T10:10:12;95038.53;;;50.30;15.02
1926;BME280;964;42.606;23.588;2022-07-17T10:12:43;95036.75;;;49.94;15.50
1926;BME280;964;42.606;23.588;2022-07-17T10:15:11;95017.19;;;51.68;13.97
1926;BME280;964;42.606;23.588;2022-07-17T10:17:38;95040.91;;;51.18;13.90
1926;BME280;964;42.606;23.588;2022-07-17T10:20:06;95028.50;;;51.23;13.77
1926;BME280;964;42.606;23.588;2022-07-17T10:22:41;95037.28;;;50.42;14.52
1926;BME280;964;42.606;23.588;2022-07-17T10:25:12;95038.03;;;51.39;14.28
1926;BME280;964;42.606;23.588;2022-07-17T10:27:46;95024.19;;;51.55;14.04
1926;BME280;964;42.606;23.588;2022-07-17T10:30:20;95027.09;;;52.85;14.21
1926;BME280;964;42.606;23.588;2022-07-17T10:32:53;95008.75;;;51.91;14.70
1926;BME280;964;42.606;23.588;2022-07-17T10:35:20;95008.78;;;52.74;13.37
1926;BME280;964;42.606;23.588;2022-07-17T10:37:47;95024.53;;;50.32;14.49
1926;BME280;964;42.606;23.588;2022-07-17T10:40:17;95014.78;;;51.29;14.93
1926;BME280;964;42.606;23.588;2022-07-17T10:42:54;95007.22;;;52.60;13.64
1926;BME280;964;42.606;23.588;2022-07-17T10:45:23;95007.00;;;51.63;13.94
1926;BME280;964;42.606;23.588;2022-07-17T10:47:56;95005.25;;;51.58;13.67
1926;BME280;964;42.606;23.588;2022-07-17T10:50:26;94996.53;;;53.46;13.56
1926;BME280;964;42.606;23.588;2022-07-17T10:53:13;95008.50;;;51.31;14.96
1926;BME280;964;42.606;23.588;2022-07-17T10:55:43;94998.72;;;51.43;14.25
1926;BME280;964;42.606;23.588;2022-07-17T10:58:23;95006.88;;;52.30;14.40
1926;BME280;964;42.606;23.588;2022-07-17T11:01:01;95011.84;;;49.40;14.78
1926;BME280;964;42.606;23.588;2022-07-17T11:03:29;95003.81;;;51.80;15.51
1926;BME280;964;42.606;23.588;2022-07-17T11:06:06;94997.59;;;51.48;13.94
1926;BME280;964;42.606;23.588;2022-07-17T11:08:35;94997.84;;;52.69;13.85
1926;BME280;964;42.606;23.588;2022-07-17T11:11:02;94990.66;;;51.96;13.47
1926;BME280;964;42.606;23.588;2022-07-17T11:13:30;94993.13;;;51.34;13.95
1926;BME280;964;42.606;23.588;2022-07-17T11:15:57;94997.94;;;51.31;14.37
1926;BME280;964;42.606;23.588;2022-07-17T11:18:24;94986.75;;;52.98;13.53
1926;BME280;964;42.606;23.588;2022-07-17T11:20:52;94978.69;;;53.57;13.36
1926;BME280;964;42.606;23.588;2022-07-17T11:23:20;94993.16;;;52.62;13.67
1926;BME280;964;42.606;23.588;2022-07-17T11:25:56;95006.78;;;49.89;14.79
1926;BME280;964;42.606;23.588;2022-07-17T11:28:33;94998.34;;;50.72;14.44
1926;BME280;964;42.606;23.588;2022-07-17T11:31:02;94986.34;;;51.72;13.18
1926;BME280;964;42.606;23.588;2022-07-17T11:33:29;94974.78;;;53.11;12.78
1926;BME280;964;42.606;23.588;2022-07-17T11:35:55;94971.81;;;53.34;12.92
1926;BME280;964;42.606;23.588;2022-07-17T11:38:24;94967.66;;;51.90;14.49
1926;BME280;964;42.606;23.588;2022-07-17T11:40:51;94991.38;;;51.17;14.14
1926;BME280;964;42.606;23.588;2022-07-17T11:43:19;94970.69;;;53.40;13.13
1926;BME280;964;42.606;23.588;2022-07-17T11:45:47;94970.06;;;53.41;13.12
1926;BME280;964;42.606;23.588;2022-07-17T11:48:14;94973.78;;;52.45;12.94
1926;BME280;964;42.606;23.588;2022-07-17T11:50:52;94968.34;;;52.49;12.90
1926;BME280;964;42.606;23.588;2022-07-17T11:53:31;94963.63;;;52.65;13.32
1926;BME280;964;42.606;23.588;2022-07-17T11:55:58;94958.63;;;53.53;13.15
1926;BME280;964;42.606;23.588;2022-07-17T11:58:25;94962.28;;;53.42;13.04
1926;BME280;964;42.606;23.588;2022-07-17T12:01:01;94965.69;;;51.69;14.22
1926;BME280;964;42.606;23.588;2022-07-17T12:03:29;94972.94;;;49.89;14.65
1926;BME280;964;42.606;23.588;2022-07-17T12:05:56;94960.06;;;51.13;14.36
1926;BME280;964;42.606;23.588;2022-07-17T12:08:23;94959.31;;;51.92;13.37
1926;BME280;964;42.606;23.588;2022-07-17T12:11:00;94961.25;;;52.24;13.27
1926;BME280;964;42.606;23.588;2022-07-17T12:13:40;94957.28;;;51.36;13.69
1926;BME280;964;42.606;23.588;2022-07-17T12:16:29;94955.44;;;53.72;12.77
1926;BME280;964;42.606;23.588;2022-07-17T12:19:05;94953.97;;;52.45;13.02
1926;BME280;964;42.606;23.588;2022-07-17T12:21:47;94960.97;;;52.44;13.28
1926;BME280;964;42.606;23.588;2022-07-17T12:24:19;94935.19;;;53.39;12.83
1926;BME280;964;42.606;23.588;2022-07-17T12:26:47;94940.00;;;54.30;11.91
1926;BME280;964;42.606;23.588;2022-07-17T12:29:14;94938.44;;;53.33;13.17
1926;BME280;964;42.606;23.588;2022-07-17T12:31:42;94947.94;;;51.22;14.06
1926;BME280;964;42.606;23.588;2022-07-17T12:34:09;94954.41;;;51.81;13.49
1926;BME280;964;42.606;23.588;2022-07-17T12:36:35;94952.78;;;51.55;13.76
1926;BME280;964;42.606;23.588;2022-07-17T12:39:03;94941.84;;;51.84;13.37
1926;BME280;964;42.606;23.588;2022-07-17T12:41:29;94941.59;;;51.57;13.43
1926;BME280;964;42.606;23.588;2022-07-17T12:43:56;94949.31;;;51.00;14.27
1926;BME280;964;42.606;23.588;2022-07-17T12:46:23;94940.03;;;51.09;14.33
1926;BME280;964;42.606;23.588;2022-07-17T12:48:51;94937.34;;;50.15;14.69
1926;BME280;964;42.606;23.588;2022-07-17T12:51:18;94943.59;;;50.77;14.39
1926;BME280;964;42.606;23.588;2022-07-17T12:53:45;94941.94;;;50.95;14.28
1926;BME280;964;42.606;23.588;2022-07-17T12:56:11;94936.31;;;52.58;14.37
1926;BME280;964;42.606;23.588;2022-07-17T12:58:39;94932.84;;;50.96;14.80
1926;BME280;964;42.606;23.588;2022-07-17T13:01:06;94931.66;;;52.51;13.74
1926;BME280;964;42.606;23.588;2022-07-17T13:03:33;94926.00;;;51.79;14.15
1926;BME280;964;42.606;23.588;2022-07-17T13:06:01;94929.06;;;50.38;15.07
1926;BME280;964;42.606;23.588;2022-07-17T13:08:29;94932.28;;;50.77;15.10
1926;BME280;964;42.606;23.588;2022-07-17T13:10:56;94916.34;;;51.14;14.30
1926;BME280;964;42.606;23.588;2022-07-17T13:13:23;94927.44;;;50.89;15.08
1926;BME280;964;42.606;23.588;2022-07-17T13:15:50;94922.19;;;51.63;14.71
1926;BME280;964;42.606;23.588;2022-07-17T13:18:17;94926.47;;;50.96;14.51
1926;BME280;964;42.606;23.588;2022-07-17T13:20:43;94935.34;;;50.27;15.21
1926;BME280;964;42.606;23.588;2022-07-17T13:23:13;94931.25;;;50.61;14.90
1926;BME280;964;42.606;23.588;2022-07-17T13:25:40;94927.63;;;50.48;15.22